sensor_id;sensor_type;location;lat;lon;timestamp;P1;durP1;ratioP1;P2;durP2;ratioP2
45909;SDS011;31622;55.416;37.840;2022-08-25T00:01:14;5.28;;;3.10;;
45909;SDS011;31622;55.416;37.840;2022-08-25T00:03:42;5.20;;;3.45;;
45909;SDS011;31622;55.416;37.840;2022-08-25T00:06:09;7.68;;;3.38;;
45909;SDS011;31622;55.416;37.840;2022-08-25T00:08:36;6.32;;;3.47;;
45909;SDS011;31622;55.416;37.840;2022-08-25T00:11:06;5.70;;;3.03;;
45909;SDS011;31622;55.416;37.840;2022-08-25T00:13:36;4.82;;;3.58;;
45909;SDS011;31622;55.416;37.840;2022-08-25T00:16:03;5.18;;;3.83;;
45909;SDS011;31622;55.416;37.840;2022-08-25T00:18:29;6.50;;;3.30;;
45909;SDS011;31622;55.416;37.840;2022-08-25T00:20:55;4.22;;;2.88;;
45909;SDS011;31622;55.416;37.840;2022-08-25T00:23:20;4.95;;;3.13;;
45909;SDS011;31622;55.416;37.840;2022-08-25T00:25:46;4.13;;;2.85;;
45909;SDS011;31622;55.416;37.840;2022-08-25T00:28:12;6.20;;;3.40;;
45909;SDS011;31622;55.416;37.840;2022-08-25T00:30:41;4.35;;;3.10;;
45909;SDS011;31622;55.416;37.840;2022-08-25T00:33:07;5.22;;;3.38;;
45909;SDS011;31622;55.416;37.840;2022-08-25T00:35:33;5.03;;;3.22;;
45909;SDS011;31622;55.416;37.840;2022-08-25T00:37:59;7.97;;;3.72;;
45909;SDS011;31622;55.416;37.840;2022-08-25T00:40:25;6.70;;;3.88;;
45909;SDS011;31622;55.416;37.840;2022-08-25T00:42:52;5.82;;;3.95;;
45909;SDS011;31622;55.416;37.840;2022-08-25T00:45:18;11.43;;;4.00;;
45909;SDS011;31622;55.416;37.840;2022-08-25T00:47:44;8.15;;;4.05;;
45909;SDS011;31622;55.416;37.840;2022-08-25T00:50:10;5.43;;;3.53;;
45909;SDS011;31622;55.416;37.840;2022-08-25T00:52:37;6.43;;;3.70;;
45909;SDS011;31622;55.416;37.840;2022-08-25T01:00:40;8.60;;;4.27;;
45909;SDS011;31622;55.416;37.840;2022-08-25T01:03:08;6.15;;;3.70;;
45909;SDS011;31622;55.416;37.840;2022-08-25T01:05:34;5.93;;;3.60;;
45909;SDS011;31622;55.416;37.840;2022-08-25T01:08:00;5.30;;;3.67;;
45909;SDS011;31622;55.416;37.840;2022-08-25T01:10:30;7.00;;;3.80;;
45909;SDS011;31622;55.416;37.840;2022-08-25T01:12:58;7.05;;;4.00;;
45909;SDS011;31622;55.416;37.840;2022-08-25T01:15:26;5.47;;;3.50;;
45909;SDS011;31622;55.416;37.840;2022-08-25T01:17:53;6.43;;;4.05;;
45909;SDS011;31622;55.416;37.840;2022-08-25T01:20:21;8.07;;;4.10;;
45909;SDS011;31622;55.416;37.840;2022-08-25T01:22:48;7.90;;;3.85;;
45909;SDS011;31622;55.416;37.840;2022-08-25T01:28:07;11.98;;;4.40;;
45909;SDS011;31622;55.416;37.840;2022-08-25T01:30:33;6.72;;;4.05;;
45909;SDS011;31622;55.416;37.840;2022-08-25T01:33:02;7.15;;;4.10;;
45909;SDS011;31622;55.416;37.840;2022-08-25T01:35:28;5.90;;;3.85;;
45909;SDS011;31622;55.416;37.840;2022-08-25T01:37:54;8.52;;;4.28;;
45909;SDS011;31622;55.416;37.840;2022-08-25T01:40:20;9.27;;;4.20;;
45909;SDS011;31622;55.416;37.840;2022-08-25T01:43:25;6.47;;;3.60;;
45909;SDS011;31622;55.416;37.840;2022-08-25T01:45:40;7.95;;;4.20;;
45909;SDS011;31622;55.416;37.840;2022-08-25T01:48:08;6.60;;;3.97;;
45909;SDS011;31622;55.416;37.840;2022-08-25T01:50:34;6.40;;;4.25;;
45909;SDS011;31622;55.416;37.840;2022-08-25T01:53:33;6.45;;;3.92;;
45909;SDS011;31622;55.416;37.840;2022-08-25T01:55:53;7.93;;;4.38;;
45909;SDS011;31622;55.416;37.840;2022-08-25T01:58:38;10.80;;;4.18;;
45909;SDS011;31622;55.416;37.840;2022-08-25T02:01:08;7.85;;;3.95;;
45909;SDS011;31622;55.416;37.840;2022-08-25T02:03:36;9.88;;;4.20;;
45909;SDS011;31622;55.416;37.840;2022-08-25T02:06:03;8.38;;;4.35;;
45909;SDS011;31622;55.416;37.840;2022-08-25T02:08:29;8.70;;;4.13;;
45909;SDS011;31622;55.416;37.840;2022-08-25T02:10:55;8.52;;;4.00;;
45909;SDS011;31622;55.416;37.840;2022-08-25T02:13:21;7.75;;;4.25;;
45909;SDS011;31622;55.416;37.840;2022-08-25T02:15:48;6.20;;;3.97;;
45909;SDS011;31622;55.416;37.840;2022-08-25T02:18:19;5.55;;;3.90;;
45909;SDS011;31622;55.416;37.840;2022-08-25T02:20:44;6.40;;;3.63;;
45909;SDS011;31622;55.416;37.840;2022-08-25T02:23:10;6.30;;;3.97;;
45909;SDS011;31622;55.416;37.840;2022-08-25T02:25:36;5.95;;;4.05;;
45909;SDS011;31622;55.416;37.840;2022-08-25T02:28:04;6.25;;;4.07;;
45909;SDS011;31622;55.416;37.840;2022-08-25T02:30:31;6.75;;;3.83;;
45909;SDS011;31622;55.416;37.840;2022-08-25T02:32:57;6.07;;;3.80;;
45909;SDS011;31622;55.416;37.840;2022-08-25T02:35:23;7.85;;;4.30;;
45909;SDS011;31622;55.416;37.840;2022-08-25T02:37:51;6.82;;;4.30;;
45909;SDS011;31622;55.416;37.840;2022-08-25T02:40:18;6.25;;;3.75;;
45909;SDS011;31622;55.416;37.840;2022-08-25T02:42:46;7.22;;;3.92;;
45909;SDS011;31622;55.416;37.840;2022-08-25T02:45:12;6.28;;;4.10;;
45909;SDS011;31622;55.416;37.840;2022-08-25T02:47:38;6.78;;;3.60;;
45909;SDS011;31622;55.416;37.840;2022-08-25T02:50:04;5.95;;;4.00;;
45909;SDS011;31622;55.416;37.840;2022-08-25T02:52:31;5.75;;;3.70;;
45909;SDS011;31622;55.416;37.840;2022-08-25T02:54:57;4.97;;;3.55;;
45909;SDS011;31622;55.416;37.840;2022-08-25T02:57:22;9.82;;;3.85;;
45909;SDS011;31622;55.416;37.840;2022-08-25T02:59:48;7.20;;;4.00;;
45909;SDS011;31622;55.416;37.840;2022-08-25T03:02:14;8.35;;;4.20;;
45909;SDS011;31622;55.416;37.840;2022-08-25T03:04:41;7.65;;;4.05;;
45909;SDS011;31622;55.416;37.840;2022-08-25T03:07:07;6.95;;;3.78;;
45909;SDS011;31622;55.416;37.840;2022-08-25T03:09:34;8.30;;;3.55;;
45909;SDS011;31622;55.416;37.840;2022-08-25T03:12:00;8.20;;;3.88;;
45909;SDS011;31622;55.416;37.840;2022-08-25T03:14:26;10.30;;;4.20;;
45909;SDS011;31622;55.416;37.840;2022-08-25T03:16:51;7.25;;;3.60;;
45909;SDS011;31622;55.416;37.840;2022-08-25T03:19:17;6.30;;;4.20;;
45909;SDS011;31622;55.416;37.840;2022-08-25T03:21:43;6.97;;;3.97;;
45909;SDS011;31622;55.416;37.840;2022-08-25T03:24:12;8.55;;;4.50;;
45909;SDS011;31622;55.416;37.840;2022-08-25T03:26:37;6.25;;;3.45;;
45909;SDS011;31622;55.416;37.840;2022-08-25T03:29:19;6.17;;;3.60;;
45909;SDS011;31622;55.416;37.840;2022-08-25T03:31:49;6.03;;;3.83;;
45909;SDS011;31622;55.416;37.840;2022-08-25T03:34:16;7.07;;;3.90;;
45909;SDS011;31622;55.416;37.840;2022-08-25T03:36:43;7.43;;;3.90;;
45909;SDS011;31622;55.416;37.840;2022-08-25T03:39:10;6.45;;;4.13;;
45909;SDS011;31622;55.416;37.840;2022-08-25T03:41:36;7.45;;;4.07;;
45909;SDS011;31622;55.416;37.840;2022-08-25T03:44:02;7.25;;;4.25;;
45909;SDS011;31622;55.416;37.840;2022-08-25T03:46:30;9.25;;;4.20;;
45909;SDS011;31622;55.416;37.840;2022-08-25T03:49:03;6.85;;;3.95;;
45909;SDS011;31622;55.416;37.840;2022-08-25T03:51:31;5.07;;;3.78;;
45909;SDS011;31622;55.416;37.840;2022-08-25T03:54:02;6.28;;;4.25;;
45909;SDS011;31622;55.416;37.840;2022-08-25T03:56:28;9.88;;;4.10;;
45909;SDS011;31622;55.416;37.840;2022-08-25T03:58:55;9.18;;;4.50;;
45909;SDS011;31622;55.416;37.840;2022-08-25T04:01:20;6.63;;;4.32;;
45909;SDS011;31622;55.416;37.840;2022-08-25T04:03:47;6.95;;;3.78;;
45909;SDS011;31622;55.416;37.840;2022-08-25T04:06:14;7.30;;;4.07;;
45909;SDS011;31622;55.416;37.840;2022-08-25T04:08:40;7.47;;;4.35;;
45909;SDS011;31622;55.416;37.840;2022-08-25T04:11:10;11.55;;;4.30;;
45909;SDS011;31622;55.416;37.840;2022-08-25T04:13:38;8.55;;;4.05;;
45909;SDS011;31622;55.416;37.840;2022-08-25T04:16:14;8.05;;;4.47;;
45909;SDS011;31622;55.416;37.840;2022-08-25T04:18:42;5.55;;;3.90;;
45909;SDS011;31622;55.416;37.840;2022-08-25T04:21:09;6.03;;;4.25;;
45909;SDS011;31622;55.416;37.840;2022-08-25T04:23:39;9.93;;;4.80;;
45909;SDS011;31622;55.416;37.840;2022-08-25T04:26:10;11.18;;;4.80;;
45909;SDS011;31622;55.416;37.840;2022-08-25T04:28:37;11.30;;;4.70;;
45909;SDS011;31622;55.416;37.840;2022-08-25T04:31:09;9.43;;;4.60;;
45909;SDS011;31622;55.416;37.840;2022-08-25T04:33:36;10.50;;;5.57;;
45909;SDS011;31622;55.416;37.840;2022-08-25T04:36:03;10.48;;;5.13;;
45909;SDS011;31622;55.416;37.840;2022-08-25T04:38:29;9.30;;;5.20;;
45909;SDS011;31622;55.416;37.840;2022-08-25T04:41:00;8.45;;;4.97;;
45909;SDS011;31622;55.416;37.840;2022-08-25T04:43:31;12.75;;;5.82;;
45909;SDS011;31622;55.416;37.840;2022-08-25T04:45:57;7.88;;;5.50;;
45909;SDS011;31622;55.416;37.840;2022-08-25T04:48:24;9.13;;;4.95;;
45909;SDS011;31622;55.416;37.840;2022-08-25T04:50:50;8.80;;;5.28;;
45909;SDS011;31622;55.416;37.840;2022-08-25T04:53:16;8.55;;;5.35;;
45909;SDS011;31622;55.416;37.840;2022-08-25T04:55:42;11.57;;;6.38;;
45909;SDS011;31622;55.416;37.840;2022-08-25T04:58:10;11.68;;;6.07;;
45909;SDS011;31622;55.416;37.840;2022-08-25T05:00:36;9.35;;;6.10;;
45909;SDS011;31622;55.416;37.840;2022-08-25T05:03:02;11.05;;;6.40;;
45909;SDS011;31622;55.416;37.840;2022-08-25T05:05:29;12.82;;;6.15;;
45909;SDS011;31622;55.416;37.840;2022-08-25T05:07:55;10.70;;;6.72;;
45909;SDS011;31622;55.416;37.840;2022-08-25T05:10:21;10.48;;;6.97;;
45909;SDS011;31622;55.416;37.840;2022-08-25T05:12:46;10.10;;;6.13;;
45909;SDS011;31622;55.416;37.840;2022-08-25T05:15:12;9.80;;;6.88;;
45909;SDS011;31622;55.416;37.840;2022-08-25T05:17:56;9.32;;;6.13;;
45909;SDS011;31622;55.416;37.840;2022-08-25T05:20:22;12.38;;;6.70;;
45909;SDS011;31622;55.416;37.840;2022-08-25T05:22:49;9.88;;;5.97;;
45909;SDS011;31622;55.416;37.840;2022-08-25T05:25:15;11.13;;;6.65;;
45909;SDS011;31622;55.416;37.840;2022-08-25T05:27:41;8.85;;;6.10;;
45909;SDS011;31622;55.416;37.840;2022-08-25T05:30:08;10.77;;;5.95;;
45909;SDS011;31622;55.416;37.840;2022-08-25T05:32:35;14.98;;;6.35;;
45909;SDS011;31622;55.416;37.840;2022-08-25T05:35:00;10.98;;;5.35;;
45909;SDS011;31622;55.416;37.840;2022-08-25T05:37:26;7.03;;;5.35;;
45909;SDS011;31622;55.416;37.840;2022-08-25T05:39:51;11.20;;;5.60;;
45909;SDS011;31622;55.416;37.840;2022-08-25T05:42:17;6.63;;;5.03;;
45909;SDS011;31622;55.416;37.840;2022-08-25T05:44:43;11.60;;;5.90;;
45909;SDS011;31622;55.416;37.840;2022-08-25T05:47:09;7.50;;;5.82;;
45909;SDS011;31622;55.416;37.840;2022-08-25T05:49:34;12.73;;;5.75;;
45909;SDS011;31622;55.416;37.840;2022-08-25T05:52:00;10.27;;;5.57;;
45909;SDS011;31622;55.416;37.840;2022-08-25T05:54:26;12.73;;;5.90;;
45909;SDS011;31622;55.416;37.840;2022-08-25T05:56:51;8.48;;;5.88;;
45909;SDS011;31622;55.416;37.840;2022-08-25T05:59:17;8.05;;;5.40;;
45909;SDS011;31622;55.416;37.840;2022-08-25T06:01:42;7.28;;;5.40;;
45909;SDS011;31622;55.416;37.840;2022-08-25T06:04:27;9.02;;;5.82;;
45909;SDS011;31622;55.416;37.840;2022-08-25T06:06:52;10.13;;;5.18;;
45909;SDS011;31622;55.416;37.840;2022-08-25T06:09:19;7.93;;;5.30;;
45909;SDS011;31622;55.416;37.840;2022-08-25T06:11:46;7.28;;;5.22;;
45909;SDS011;31622;55.416;37.840;2022-08-25T06:14:11;10.88;;;5.97;;
45909;SDS011;31622;55.416;37.840;2022-08-25T06:16:37;7.93;;;5.78;;
45909;SDS011;31622;55.416;37.840;2022-08-25T06:19:04;12.00;;;5.90;;
45909;SDS011;31622;55.416;37.840;2022-08-25T06:21:31;9.20;;;5.75;;
45909;SDS011;31622;55.416;37.840;2022-08-25T06:23:57;11.95;;;6.03;;
45909;SDS011;31622;55.416;37.840;2022-08-25T06:26:22;7.18;;;5.47;;
45909;SDS011;31622;55.416;37.840;2022-08-25T06:28:48;8.95;;;5.18;;
45909;SDS011;31622;55.416;37.840;2022-08-25T06:31:15;6.90;;;5.32;;
45909;SDS011;31622;55.416;37.840;2022-08-25T06:33:41;6.35;;;5.00;;
45909;SDS011;31622;55.416;37.840;2022-08-25T06:36:08;11.43;;;5.10;;
45909;SDS011;31622;55.416;37.840;2022-08-25T06:38:34;8.57;;;5.13;;
45909;SDS011;31622;55.416;37.840;2022-08-25T06:41:01;6.93;;;4.82;;
45909;SDS011;31622;55.416;37.840;2022-08-25T06:43:30;7.68;;;5.07;;
45909;SDS011;31622;55.416;37.840;2022-08-25T06:46:09;10.15;;;5.15;;
45909;SDS011;31622;55.416;37.840;2022-08-25T06:48:39;6.68;;;5.05;;
45909;SDS011;31622;55.416;37.840;2022-08-25T06:51:09;7.05;;;5.18;;
45909;SDS011;31622;55.416;37.840;2022-08-25T06:53:36;7.68;;;5.40;;
45909;SDS011;31622;55.416;37.840;2022-08-25T06:56:02;7.72;;;5.32;;
45909;SDS011;31622;55.416;37.840;2022-08-25T06:58:28;8.00;;;5.43;;
45909;SDS011;31622;55.416;37.840;2022-08-25T07:00:54;10.95;;;5.20;;
45909;SDS011;31622;55.416;37.840;2022-08-25T07:03:20;10.40;;;5.55;;
45909;SDS011;31622;55.416;37.840;2022-08-25T07:05:52;6.38;;;4.93;;
45909;SDS011;31622;55.416;37.840;2022-08-25T07:08:19;6.13;;;5.25;;
45909;SDS011;31622;55.416;37.840;2022-08-25T07:10:45;8.20;;;5.40;;
45909;SDS011;31622;55.416;37.840;2022-08-25T07:13:11;5.55;;;4.55;;
45909;SDS011;31622;55.416;37.840;2022-08-25T07:15:37;7.07;;;5.18;;
45909;SDS011;31622;55.416;37.840;2022-08-25T07:18:04;8.57;;;5.30;;
45909;SDS011;31622;55.416;37.840;2022-08-25T07:20:29;9.02;;;5.05;;
45909;SDS011;31622;55.416;37.840;2022-08-25T07:22:56;7.05;;;5.38;;
45909;SDS011;31622;55.416;37.840;2022-08-25T07:25:22;7.03;;;4.70;;
45909;SDS011;31622;55.416;37.840;2022-08-25T07:27:48;5.95;;;4.43;;
45909;SDS011;31622;55.416;37.840;2022-08-25T07:30:13;7.68;;;5.32;;
45909;SDS011;31622;55.416;37.840;2022-08-25T07:32:41;6.47;;;5.30;;
45909;SDS011;31622;55.416;37.840;2022-08-25T07:35:07;9.77;;;5.50;;
45909;SDS011;31622;55.416;37.840;2022-08-25T07:37:44;7.00;;;5.45;;
45909;SDS011;31622;55.416;37.840;2022-08-25T07:40:15;8.63;;;4.63;;
45909;SDS011;31622;55.416;37.840;2022-08-25T07:42:49;6.88;;;4.53;;
45909;SDS011;31622;55.416;37.840;2022-08-25T07:45:16;6.07;;;4.22;;
45909;SDS011;31622;55.416;37.840;2022-08-25T07:47:43;6.10;;;4.78;;
45909;SDS011;31622;55.416;37.840;2022-08-25T07:50:10;6.15;;;4.75;;
45909;SDS011;31622;55.416;37.840;2022-08-25T07:52:37;9.48;;;4.65;;
45909;SDS011;31622;55.416;37.840;2022-08-25T07:55:04;6.10;;;4.25;;
45909;SDS011;31622;55.416;37.840;2022-08-25T07:57:31;6.78;;;4.50;;
45909;SDS011;31622;55.416;37.840;2022-08-25T07:59:58;6.07;;;4.47;;
45909;SDS011;31622;55.416;37.840;2022-08-25T08:02:24;5.35;;;4.18;;
45909;SDS011;31622;55.416;37.840;2022-08-25T08:04:51;8.57;;;4.50;;
45909;SDS011;31622;55.416;37.840;2022-08-25T08:07:18;5.93;;;4.32;;
45909;SDS011;31622;55.416;37.840;2022-08-25T08:09:45;6.13;;;4.30;;
45909;SDS011;31622;55.416;37.840;2022-08-25T08:12:11;5.30;;;4.50;;
45909;SDS011;31622;55.416;37.840;2022-08-25T08:14:36;6.68;;;4.53;;
45909;SDS011;31622;55.416;37.840;2022-08-25T08:17:06;7.70;;;5.13;;
45909;SDS011;31622;55.416;37.840;2022-08-25T08:19:33;8.20;;;4.88;;
45909;SDS011;31622;55.416;37.840;2022-08-25T08:21:59;5.47;;;4.15;;
45909;SDS011;31622;55.416;37.840;2022-08-25T08:24:25;5.90;;;4.65;;
45909;SDS011;31622;55.416;37.840;2022-08-25T08:26:53;4.88;;;4.25;;
45909;SDS011;31622;55.416;37.840;2022-08-25T08:29:19;5.38;;;4.47;;
45909;SDS011;31622;55.416;37.840;2022-08-25T08:31:46;6.07;;;5.10;;
45909;SDS011;31622;55.416;37.840;2022-08-25T08:34:13;7.90;;;4.40;;
45909;SDS011;31622;55.416;37.840;2022-08-25T08:36:38;6.40;;;4.50;;
45909;SDS011;31622;55.416;37.840;2022-08-25T08:39:04;7.47;;;4.65;;
45909;SDS011;31622;55.416;37.840;2022-08-25T08:47:06;6.75;;;4.75;;
45909;SDS011;31622;55.416;37.840;2022-08-25T08:49:53;6.25;;;4.45;;
45909;SDS011;31622;55.416;37.840;2022-08-25T08:57:57;5.03;;;4.43;;
45909;SDS011;31622;55.416;37.840;2022-08-25T09:00:25;6.80;;;4.85;;
45909;SDS011;31622;55.416;37.840;2022-08-25T09:05:42;6.07;;;4.72;;
45909;SDS011;31622;55.416;37.840;2022-08-25T09:08:11;5.45;;;4.15;;
45909;SDS011;31622;55.416;37.840;2022-08-25T09:21:47;7.32;;;4.05;;
45909;SDS011;31622;55.416;37.840;2022-08-25T09:29:51;8.32;;;5.72;;
45909;SDS011;31622;55.416;37.840;2022-08-25T09:32:27;9.98;;;5.60;;
45909;SDS011;31622;55.416;37.840;2022-08-25T09:34:54;9.60;;;5.30;;
45909;SDS011;31622;55.416;37.840;2022-08-25T09:37:20;12.00;;;6.18;;
45909;SDS011;31622;55.416;37.840;2022-08-25T09:39:47;10.38;;;5.63;;
45909;SDS011;31622;55.416;37.840;2022-08-25T09:42:12;8.82;;;5.55;;
45909;SDS011;31622;55.416;37.840;2022-08-25T09:44:39;11.85;;;5.90;;
45909;SDS011;31622;55.416;37.840;2022-08-25T09:54:57;12.90;;;6.50;;
45909;SDS011;31622;55.416;37.840;2022-08-25T09:57:31;11.80;;;6.95;;
45909;SDS011;31622;55.416;37.840;2022-08-25T10:00:11;13.15;;;6.85;;
45909;SDS011;31622;55.416;37.840;2022-08-25T10:05:31;12.68;;;5.75;;
45909;SDS011;31622;55.416;37.840;2022-08-25T10:08:03;10.80;;;5.93;;
45909;SDS011;31622;55.416;37.840;2022-08-25T10:10:42;9.57;;;5.55;;
45909;SDS011;31622;55.416;37.840;2022-08-25T10:13:52;14.32;;;6.22;;
45909;SDS011;31622;55.416;37.840;2022-08-25T10:21:29;12.60;;;6.57;;
45909;SDS011;31622;55.416;37.840;2022-08-25T10:23:55;11.23;;;6.13;;
45909;SDS011;31622;55.416;37.840;2022-08-25T10:29:43;15.10;;;6.32;;
45909;SDS011;31622;55.416;37.840;2022-08-25T10:34:52;11.48;;;6.13;;
45909;SDS011;31622;55.416;37.840;2022-08-25T10:40:30;8.23;;;5.53;;
45909;SDS011;31622;55.416;37.840;2022-08-25T10:43:04;8.68;;;5.93;;
45909;SDS011;31622;55.416;37.840;2022-08-25T10:45:44;8.50;;;5.22;;
45909;SDS011;31622;55.416;37.840;2022-08-25T11:04:45;9.23;;;4.22;;
45909;SDS011;31622;55.416;37.840;2022-08-25T11:07:24;6.70;;;4.85;;
45909;SDS011;31622;55.416;37.840;2022-08-25T11:09:53;5.22;;;4.65;;
45909;SDS011;31622;55.416;37.840;2022-08-25T11:15:01;10.55;;;5.32;;
45909;SDS011;31622;55.416;37.840;2022-08-25T11:20:13;6.65;;;4.47;;
45909;SDS011;31622;55.416;37.840;2022-08-25T11:25:33;8.07;;;4.68;;
45909;SDS011;31622;55.416;37.840;2022-08-25T11:30:32;6.85;;;5.18;;
45909;SDS011;31622;55.416;37.840;2022-08-25T11:32:57;7.03;;;5.80;;
45909;SDS011;31622;55.416;37.840;2022-08-25T11:35:37;10.18;;;6.20;;
45909;SDS011;31622;55.416;37.840;2022-08-25T11:41:04;9.43;;;6.55;;
45909;SDS011;31622;55.416;37.840;2022-08-25T11:44:04;8.15;;;5.35;;
45909;SDS011;31622;55.416;37.840;2022-08-25T11:52:37;8.18;;;5.63;;
45909;SDS011;31622;55.416;37.840;2022-08-25T11:58:20;7.35;;;5.70;;
45909;SDS011;31622;55.416;37.840;2022-08-25T12:00:47;8.05;;;5.75;;
45909;SDS011;31622;55.416;37.840;2022-08-25T12:27:09;9.38;;;6.20;;
45909;SDS011;31622;55.416;37.840;2022-08-25T12:29:52;8.65;;;5.63;;
45909;SDS011;31622;55.416;37.840;2022-08-25T12:35:30;9.25;;;5.65;;
45909;SDS011;31622;55.416;37.840;2022-08-25T12:40:31;8.15;;;5.70;;
45909;SDS011;31622;55.416;37.840;2022-08-25T12:43:10;7.55;;;5.82;;
45909;SDS011;31622;55.416;37.840;2022-08-25T12:45:47;7.20;;;5.85;;
45909;SDS011;31622;55.416;37.840;2022-08-25T12:50:55;8.20;;;6.10;;
45909;SDS011;31622;55.416;37.840;2022-08-25T12:53:27;7.80;;;5.75;;
45909;SDS011;31622;55.416;37.840;2022-08-25T13:12:29;8.25;;;6.00;;
45909;SDS011;31622;55.416;37.840;2022-08-25T13:14:55;7.95;;;6.00;;
45909;SDS011;31622;55.416;37.840;2022-08-25T13:17:26;7.63;;;5.57;;
45909;SDS011;31622;55.416;37.840;2022-08-25T13:22:46;6.60;;;5.78;;
45909;SDS011;31622;55.416;37.840;2022-08-25T13:25:13;7.32;;;6.22;;
45909;SDS011;31622;55.416;37.840;2022-08-25T13:30:22;7.00;;;5.60;;
45909;SDS011;31622;55.416;37.840;2022-08-25T13:32:55;8.18;;;5.95;;
45909;SDS011;31622;55.416;37.840;2022-08-25T13:35:25;6.15;;;5.55;;
45909;SDS011;31622;55.416;37.840;2022-08-25T13:37:53;8.07;;;6.10;;
45909;SDS011;31622;55.416;37.840;2022-08-25T13:40:23;6.82;;;5.55;;
45909;SDS011;31622;55.416;37.840;2022-08-25T13:45:19;9.52;;;5.38;;
45909;SDS011;31622;55.416;37.840;2022-08-25T13:47:49;8.80;;;5.68;;
45909;SDS011;31622;55.416;37.840;2022-08-25T13:50:20;11.23;;;4.82;;
45909;SDS011;31622;55.416;37.840;2022-08-25T13:52:46;7.80;;;5.38;;
45909;SDS011;31622;55.416;37.840;2022-08-25T13:55:18;6.68;;;5.28;;
45909;SDS011;31622;55.416;37.840;2022-08-25T13:57:46;8.82;;;4.88;;
45909;SDS011;31622;55.416;37.840;2022-08-25T14:00:11;7.80;;;5.50;;
45909;SDS011;31622;55.416;37.840;2022-08-25T14:02:59;9.27;;;5.68;;
45909;SDS011;31622;55.416;37.840;2022-08-25T14:05:35;9.93;;;4.88;;
45909;SDS011;31622;55.416;37.840;2022-08-25T14:08:03;14.82;;;5.70;;
45909;SDS011;31622;55.416;37.840;2022-08-25T14:15:52;9.60;;;5.40;;
45909;SDS011;31622;55.416;37.840;2022-08-25T14:18:24;9.07;;;5.38;;
45909;SDS011;31622;55.416;37.840;2022-08-25T14:20:53;8.55;;;5.13;;
45909;SDS011;31622;55.416;37.840;2022-08-25T14:23:21;7.13;;;5.15;;
45909;SDS011;31622;55.416;37.840;2022-08-25T14:25:52;6.53;;;5.03;;
45909;SDS011;31622;55.416;37.840;2022-08-25T14:28:20;6.25;;;4.90;;
45909;SDS011;31622;55.416;37.840;2022-08-25T14:30:48;7.10;;;5.57;;
45909;SDS011;31622;55.416;37.840;2022-08-25T14:33:16;7.03;;;5.70;;
45909;SDS011;31622;55.416;37.840;2022-08-25T14:35:46;6.60;;;5.60;;
45909;SDS011;31622;55.416;37.840;2022-08-25T14:38:13;6.00;;;5.13;;
45909;SDS011;31622;55.416;37.840;2022-08-25T14:40:39;7.50;;;5.80;;
45909;SDS011;31622;55.416;37.840;2022-08-25T14:43:08;6.15;;;5.38;;
45909;SDS011;31622;55.416;37.840;2022-08-25T14:45:34;6.07;;;5.22;;
45909;SDS011;31622;55.416;37.840;2022-08-25T14:48:06;6.43;;;5.57;;
45909;SDS011;31622;55.416;37.840;2022-08-25T14:50:33;6.68;;;5.22;;
45909;SDS011;31622;55.416;37.840;2022-08-25T14:53:00;6.65;;;5.30;;
45909;SDS011;31622;55.416;37.840;2022-08-25T14:55:26;8.35;;;6.28;;
45909;SDS011;31622;55.416;37.840;2022-08-25T14:57:52;10.18;;;6.47;;
45909;SDS011;31622;55.416;37.840;2022-08-25T15:00:18;11.75;;;6.97;;
45909;SDS011;31622;55.416;37.840;2022-08-25T15:02:43;13.80;;;7.78;;
45909;SDS011;31622;55.416;37.840;2022-08-25T15:05:11;17.33;;;8.93;;
45909;SDS011;31622;55.416;37.840;2022-08-25T15:07:40;16.55;;;8.00;;
45909;SDS011;31622;55.416;37.840;2022-08-25T15:10:24;21.80;;;9.23;;
45909;SDS011;31622;55.416;37.840;2022-08-25T15:12:50;16.92;;;8.07;;
45909;SDS011;31622;55.416;37.840;2022-08-25T15:15:16;16.48;;;8.68;;
45909;SDS011;31622;55.416;37.840;2022-08-25T15:17:42;14.52;;;7.45;;
45909;SDS011;31622;55.416;37.840;2022-08-25T15:20:08;15.07;;;7.43;;
45909;SDS011;31622;55.416;37.840;2022-08-25T15:22:34;12.55;;;7.50;;
45909;SDS011;31622;55.416;37.840;2022-08-25T15:25:00;11.77;;;7.38;;
45909;SDS011;31622;55.416;37.840;2022-08-25T15:27:26;13.35;;;8.43;;
45909;SDS011;31622;55.416;37.840;2022-08-25T15:29:52;10.80;;;7.20;;
45909;SDS011;31622;55.416;37.840;2022-08-25T15:32:18;9.27;;;6.88;;
45909;SDS011;31622;55.416;37.840;2022-08-25T15:34:43;12.18;;;7.50;;
45909;SDS011;31622;55.416;37.840;2022-08-25T15:37:11;9.68;;;6.88;;
45909;SDS011;31622;55.416;37.840;2022-08-25T15:39:39;9.88;;;7.18;;
45909;SDS011;31622;55.416;37.840;2022-08-25T15:42:07;11.75;;;7.10;;
45909;SDS011;31622;55.416;37.840;2022-08-25T15:44:33;11.57;;;7.65;;
45909;SDS011;31622;55.416;37.840;2022-08-25T15:46:59;10.95;;;7.53;;
45909;SDS011;31622;55.416;37.840;2022-08-25T15:49:25;10.95;;;6.57;;
45909;SDS011;31622;55.416;37.840;2022-08-25T15:51:51;10.02;;;7.20;;
45909;SDS011;31622;55.416;37.840;2022-08-25T15:54:18;9.98;;;7.35;;
45909;SDS011;31622;55.416;37.840;2022-08-25T15:56:44;8.57;;;6.80;;
45909;SDS011;31622;55.416;37.840;2022-08-25T15:59:11;11.23;;;6.93;;
45909;SDS011;31622;55.416;37.840;2022-08-25T16:01:37;8.43;;;6.88;;
45909;SDS011;31622;55.416;37.840;2022-08-25T16:04:03;9.18;;;6.60;;
45909;SDS011;31622;55.416;37.840;2022-08-25T16:06:28;9.38;;;6.97;;
45909;SDS011;31622;55.416;37.840;2022-08-25T16:08:54;8.98;;;6.60;;
45909;SDS011;31622;55.416;37.840;2022-08-25T16:11:21;9.70;;;6.72;;
45909;SDS011;31622;55.416;37.840;2022-08-25T16:13:49;8.95;;;6.80;;
45909;SDS011;31622;55.416;37.840;2022-08-25T16:16:16;10.43;;;7.00;;
45909;SDS011;31622;55.416;37.840;2022-08-25T16:18:43;12.32;;;6.68;;
45909;SDS011;31622;55.416;37.840;2022-08-25T16:21:09;9.82;;;7.00;;
45909;SDS011;31622;55.416;37.840;2022-08-25T16:23:37;8.88;;;6.75;;
45909;SDS011;31622;55.416;37.840;2022-08-25T16:26:04;10.35;;;7.57;;
45909;SDS011;31622;55.416;37.840;2022-08-25T16:28:33;10.60;;;6.90;;
45909;SDS011;31622;55.416;37.840;2022-08-25T16:31:00;10.98;;;7.50;;
45909;SDS011;31622;55.416;37.840;2022-08-25T16:33:25;10.48;;;8.05;;
45909;SDS011;31622;55.416;37.840;2022-08-25T16:35:51;12.45;;;7.78;;
45909;SDS011;31622;55.416;37.840;2022-08-25T16:38:16;13.32;;;7.90;;
45909;SDS011;31622;55.416;37.840;2022-08-25T16:40:42;10.70;;;7.53;;
45909;SDS011;31622;55.416;37.840;2022-08-25T16:43:10;10.07;;;7.93;;
45909;SDS011;31622;55.416;37.840;2022-08-25T16:45:36;9.23;;;7.20;;
45909;SDS011;31622;55.416;37.840;2022-08-25T16:48:02;12.20;;;7.38;;
45909;SDS011;31622;55.416;37.840;2022-08-25T16:50:29;10.98;;;7.25;;
45909;SDS011;31622;55.416;37.840;2022-08-25T16:52:56;10.55;;;7.18;;
45909;SDS011;31622;55.416;37.840;2022-08-25T16:55:40;10.20;;;7.60;;
45909;SDS011;31622;55.416;37.840;2022-08-25T16:58:07;10.25;;;7.82;;
45909;SDS011;31622;55.416;37.840;2022-08-25T17:00:34;11.15;;;7.95;;
45909;SDS011;31622;55.416;37.840;2022-08-25T17:03:01;10.48;;;7.88;;
45909;SDS011;31622;55.416;37.840;2022-08-25T17:05:29;9.43;;;7.57;;
45909;SDS011;31622;55.416;37.840;2022-08-25T17:07:59;12.82;;;8.02;;
45909;SDS011;31622;55.416;37.840;2022-08-25T17:10:43;11.13;;;7.72;;
45909;SDS011;31622;55.416;37.840;2022-08-25T17:13:09;14.35;;;8.00;;
45909;SDS011;31622;55.416;37.840;2022-08-25T17:15:39;9.43;;;7.80;;
45909;SDS011;31622;55.416;37.840;2022-08-25T17:18:06;9.85;;;8.18;;
45909;SDS011;31622;55.416;37.840;2022-08-25T17:20:32;12.10;;;7.43;;
45909;SDS011;31622;55.416;37.840;2022-08-25T17:22:59;12.55;;;7.60;;